Time,TemperatureF,DewpointF,PressureIn,WindDirection,WindDirectionDegrees,WindSpeedMPH,WindSpeedGustMPH,Humidity,HourlyPrecipIn,Conditions,Clouds,dailyrainin,SoftwareType,DateUTC
2013-09-05 00:00:00,60.4,55.0,17.92,West,274,4.5,4.5,82,0.00,,,-99.99,wx200d/1.3,2013-09-05 07:00:00,
2013-09-05 00:15:00,60.3,55.0,17.92,WNW,285,2.2,4.0,83,0.00,,,-99.99,wx200d/1.3,2013-09-05 07:15:00,
2013-09-05 00:30:00,60.3,55.0,17.92,WNW,285,2.7,2.7,83,0.00,,,-99.99,wx200d/1.3,2013-09-05 07:30:00,
2013-09-05 00:45:00,60.1,55.0,17.92,West,272,0.0,2.7,84,0.00,,,-99.99,wx200d/1.3,2013-09-05 07:45:00,
2013-09-05 01:00:00,59.9,55.0,17.92,East,87,0.0,3.6,84,0.00,,,-99.99,wx200d/1.3,2013-09-05 08:00:00,
2013-09-05 01:15:00,60.1,55.0,17.92,West,264,2.2,3.1,84,0.00,,,-99.99,wx200d/1.3,2013-09-05 08:15:00,
2013-09-05 01:30:00,60.1,55.0,17.92,West,277,0.0,3.6,85,0.00,,,-99.99,wx200d/1.3,2013-09-05 08:30:00,
2013-09-05 01:45:00,60.3,55.0,17.92,WNW,297,3.1,3.1,84,0.00,,,-99.99,wx200d/1.3,2013-09-05 08:45:00,
2013-09-05 02:00:00,60.3,55.0,17.92,West,259,3.6,3.6,84,0.00,,,-99.99,wx200d/1.3,2013-09-05 09:00:00,
2013-09-05 02:15:00,60.1,55.0,17.92,NW,306,3.1,4.0,84,0.00,,,-99.99,wx200d/1.3,2013-09-05 09:15:00,
2013-09-05 02:30:00,60.1,55.0,17.92,West,275,3.1,3.6,84,0.00,,,-99.99,wx200d/1.3,2013-09-05 09:30:00,
2013-09-05 02:45:00,60.1,55.0,17.92,West,276,0.0,2.7,84,0.00,,,-99.99,wx200d/1.3,2013-09-05 09:45:00,
2013-09-05 03:00:00,60.1,55.0,17.92,SE,128,0.0,3.1,85,0.00,,,-99.99,wx200d/1.3,2013-09-05 10:00:00,
2013-09-05 03:15:00,59.7,55.0,17.92,West,275,0.0,0.0,85,0.00,,,-99.99,wx200d/1.3,2013-09-05 10:15:00,
2013-09-05 03:30:00,59.4,55.0,17.92,WNW,283,0.0,0.0,85,0.00,,,-99.99,wx200d/1.3,2013-09-05 10:30:00,
2013-09-05 03:45:00,59.2,55.0,17.92,West,266,0.0,0.0,85,0.00,,,-99.99,wx200d/1.3,2013-09-05 10:45:00,
2013-09-05 04:00:00,58.8,55.0,17.92,West,271,0.0,0.0,86,0.00,,,-99.99,wx200d/1.3,2013-09-05 11:00:00,
2013-09-05 04:15:00,58.5,55.0,17.92,West,280,0.0,0.0,87,0.00,,,-99.99,wx200d/1.3,2013-09-05 11:15:00,
2013-09-05 04:30:00,58.3,55.0,17.92,South,178,0.0,0.0,87,0.00,,,-99.99,wx200d/1.3,2013-09-05 11:30:00,
2013-09-05 04:45:00,58.3,55.0,17.92,West,269,0.0,0.0,87,0.00,,,-99.99,wx200d/1.3,2013-09-05 11:45:00,
2013-09-05 05:00:00,58.5,55.0,17.92,West,270,0.0,2.2,87,0.00,,,-99.99,wx200d/1.3,2013-09-05 12:00:00,
2013-09-05 05:15:00,59.4,55.0,17.92,West,274,0.0,0.0,87,0.00,,,-99.99,wx200d/1.3,2013-09-05 12:15:00,
2013-09-05 05:30:00,59.2,55.0,17.92,ESE,106,0.0,2.2,87,0.00,,,-99.99,wx200d/1.3,2013-09-05 12:30:00,
2013-09-05 05:45:00,58.8,55.0,17.92,West,278,0.0,0.0,87,0.00,,,-99.99,wx200d/1.3,2013-09-05 12:45:00,
2013-09-05 06:00:00,58.6,55.0,17.92,West,272,0.0,0.0,88,0.00,,,-99.99,wx200d/1.3,2013-09-05 13:00:00,
2013-09-05 06:15:00,58.5,55.0,17.92,West,267,0.0,0.0,88,0.00,,,-99.99,wx200d/1.3,2013-09-05 13:15:00,
2013-09-05 06:30:00,58.8,55.0,17.92,West,281,0.0,0.0,88,0.00,,,-99.99,wx200d/1.3,2013-09-05 13:30:00,
2013-09-05 06:45:00,59.0,55.0,17.92,West,273,0.0,0.0,88,0.00,,,-99.99,wx200d/1.3,2013-09-05 13:45:00,
2013-09-05 07:00:00,59.2,55.0,17.92,West,266,0.0,0.0,88,0.00,,,-99.99,wx200d/1.3,2013-09-05 14:00:00,
2013-09-05 07:15:00,59.2,55.0,17.92,West,267,0.0,0.0,88,0.00,,,-99.99,wx200d/1.3,2013-09-05 14:15:00,
2013-09-05 07:30:00,59.5,55.0,17.92,South,179,0.0,0.0,88,0.00,,,-99.99,wx200d/1.3,2013-09-05 14:30:00,
2013-09-05 07:45:00,59.7,55.0,17.92,WNW,291,0.0,4.0,88,0.00,,,-99.99,wx200d/1.3,2013-09-05 14:45:00,
2013-09-05 08:00:00,60.1,57.0,17.92,West,266,2.2,3.6,88,0.00,,,-99.99,wx200d/1.3,2013-09-05 15:00:00,
2013-09-05 08:15:00,60.6,55.0,17.92,West,274,0.0,0.0,85,0.00,,,-99.99,wx200d/1.3,2013-09-05 15:15:00,
2013-09-05 08:30:00,61.2,54.0,17.92,West,273,0.0,2.7,79,0.00,,,-99.99,wx200d/1.3,2013-09-05 15:30:00,
2013-09-05 08:45:00,61.5,52.0,17.92,ENE,78,0.0,0.0,70,0.00,,,-99.99,wx200d/1.3,2013-09-05 15:45:00,
2013-09-05 09:00:00,61.9,52.0,17.92,WNW,291,0.0,4.0,67,0.00,,,-99.99,wx200d/1.3,2013-09-05 16:00:00,
2013-09-05 09:15:00,62.2,48.0,17.92,North,0,2.7,0.0,61,0.00,,,-99.99,wx200d/1.3,2013-09-05 16:15:00,
2013-09-05 09:30:00,63.0,46.0,17.92,WNW,283,2.7,3.1,56,0.00,,,-99.99,wx200d/1.3,2013-09-05 16:30:00,
2013-09-05 09:45:00,63.7,46.0,17.92,West,277,2.2,0.0,51,0.00,,,-99.99,wx200d/1.3,2013-09-05 16:45:00,
2013-09-05 10:00:00,64.0,45.0,17.92,West,268,0.0,0.0,49,0.00,,,-99.99,wx200d/1.3,2013-09-05 17:00:00,
2013-09-05 10:15:00,64.6,45.0,17.92,ENE,75,0.0,0.0,48,0.00,,,-99.99,wx200d/1.3,2013-09-05 17:15:00,
2013-09-05 10:30:00,65.3,45.0,17.92,West,278,0.0,0.0,45,0.00,,,-99.99,wx200d/1.3,2013-09-05 17:30:00,
2013-09-05 10:45:00,66.0,43.0,17.92,West,280,2.2,0.0,43,0.00,,,-99.99,wx200d/1.3,2013-09-05 17:45:00,
2013-09-05 11:00:00,66.9,41.0,17.92,NW,312,0.0,0.0,40,0.00,,,-99.99,wx200d/1.3,2013-09-05 18:00:00,
2013-09-05 11:15:00,67.5,41.0,17.92,West,271,2.2,4.9,38,0.00,,,-99.99,wx200d/1.3,2013-09-05 18:15:00,
2013-09-05 11:30:00,67.6,41.0,17.92,West,263,2.7,2.7,37,0.00,,,-99.99,wx200d/1.3,2013-09-05 18:30:00,
2013-09-05 11:45:00,68.0,39.0,17.92,West,272,3.6,3.6,35,0.00,,,-99.99,wx200d/1.3,2013-09-05 18:45:00,
2013-09-05 12:00:00,68.4,39.0,17.92,NW,305,0.0,0.0,35,0.00,,,-99.99,wx200d/1.3,2013-09-05 19:00:00,
2013-09-05 12:15:00,68.4,39.0,17.92,North,2,3.1,3.1,34,0.00,,,-99.99,wx200d/1.3,2013-09-05 19:15:00,
2013-09-05 12:30:00,68.9,41.0,17.92,West,270,0.0,2.7,34,0.00,,,-99.99,wx200d/1.3,2013-09-05 19:30:00,
2013-09-05 12:45:00,69.6,39.0,17.92,West,271,3.1,3.6,33,0.00,,,-99.99,wx200d/1.3,2013-09-05 19:45:00,
2013-09-05 13:00:00,69.8,39.0,17.92,West,273,2.7,2.7,32,0.00,,,-99.99,wx200d/1.3,2013-09-05 20:00:00,
2013-09-05 13:15:00,70.0,39.0,17.92,West,276,3.1,3.1,32,0.00,,,-99.99,wx200d/1.3,2013-09-05 20:15:00,
2013-09-05 13:30:00,70.2,39.0,17.92,WNW,287,3.1,3.1,32,0.00,,,-99.99,wx200d/1.3,2013-09-05 20:30:00,
2013-09-05 13:45:00,70.5,37.0,17.92,West,279,5.4,5.4,30,0.00,,,-99.99,wx200d/1.3,2013-09-05 20:45:00,
2013-09-05 14:00:00,70.9,37.0,17.92,West,274,2.7,2.7,29,0.00,,,-99.99,wx200d/1.3,2013-09-05 21:00:00,
2013-09-05 14:15:00,71.2,37.0,17.92,West,276,3.6,3.6,28,0.00,,,-99.99,wx200d/1.3,2013-09-05 21:15:00,
2013-09-05 14:30:00,71.1,37.0,17.92,West,277,3.6,5.8,29,0.00,,,-99.99,wx200d/1.3,2013-09-05 21:30:00,
2013-09-05 14:45:00,70.7,39.0,17.92,West,266,2.7,2.7,30,0.00,,,-99.99,wx200d/1.3,2013-09-05 21:45:00,
2013-09-05 15:00:00,70.3,37.0,17.92,WSW,258,4.9,4.9,30,0.00,,,-99.99,wx200d/1.3,2013-09-05 22:00:00,
2013-09-05 15:15:00,70.3,36.0,17.92,NE,36,3.1,4.0,29,0.00,,,-99.99,wx200d/1.3,2013-09-05 22:15:00,
2013-09-05 15:30:00,70.5,36.0,17.92,SE,132,3.6,4.5,29,0.00,,,-99.99,wx200d/1.3,2013-09-05 22:30:00,
2013-09-05 15:45:00,70.5,36.0,17.92,West,265,3.6,3.6,29,0.00,,,-99.99,wx200d/1.3,2013-09-05 22:45:00,
2013-09-05 16:00:00,70.3,37.0,17.92,WNW,285,3.6,5.8,30,0.00,,,-99.99,wx200d/1.3,2013-09-05 23:00:00,
2013-09-05 16:15:00,69.6,39.0,17.92,West,269,3.6,4.0,32,0.00,,,-99.99,wx200d/1.3,2013-09-05 23:15:00,
2013-09-05 16:30:00,69.6,39.0,17.92,WNW,293,2.7,2.7,32,0.00,,,-99.99,wx200d/1.3,2013-09-05 23:30:00,
2013-09-05 16:45:00,69.3,39.0,17.92,WNW,297,3.1,3.1,33,0.00,,,-99.99,wx200d/1.3,2013-09-05 23:45:00,
2013-09-05 17:00:00,68.5,37.0,17.92,East,79,4.0,7.2,33,0.00,,,-99.99,wx200d/1.3,2013-09-06 00:00:00,
2013-09-05 17:15:00,68.2,39.0,17.92,WSW,239,3.1,3.1,34,0.00,,,-99.99,wx200d/1.3,2013-09-06 00:15:00,
2013-09-05 17:30:00,67.6,39.0,17.92,North,350,4.9,4.9,35,0.00,,,-99.99,wx200d/1.3,2013-09-06 00:30:00,
2013-09-05 17:45:00,67.5,39.0,17.92,WSW,257,2.7,3.6,35,0.00,,,-99.99,wx200d/1.3,2013-09-06 00:45:00,
2013-09-05 18:00:00,67.3,39.0,17.92,East,79,3.1,4.0,35,0.00,,,-99.99,wx200d/1.3,2013-09-06 01:00:00,
2013-09-05 18:15:00,67.3,39.0,17.92,NW,308,3.1,3.1,35,0.00,,,-99.99,wx200d/1.3,2013-09-06 01:15:00,
2013-09-05 18:30:00,66.9,39.0,17.92,WNW,282,3.6,3.6,36,0.00,,,-99.99,wx200d/1.3,2013-09-06 01:30:00,
2013-09-05 18:45:00,68.5,39.0,17.92,West,273,2.2,4.0,34,0.00,,,-99.99,wx200d/1.3,2013-09-06 01:45:00,
2013-09-05 19:00:00,67.6,39.0,17.92,WNW,287,2.7,2.7,34,0.00,,,-99.99,wx200d/1.3,2013-09-06 02:00:00,
2013-09-05 19:15:00,65.5,39.0,17.92,West,280,2.2,2.7,37,0.00,,,-99.99,wx200d/1.3,2013-09-06 02:15:00,
2013-09-05 19:30:00,64.0,41.0,17.92,West,274,3.1,3.1,43,0.00,,,-99.99,wx200d/1.3,2013-09-06 02:30:00,
2013-09-05 19:45:00,63.3,39.0,17.92,West,275,3.6,5.4,43,0.00,,,-99.99,wx200d/1.3,2013-09-06 02:45:00,
2013-09-05 20:00:00,63.0,39.0,17.92,West,274,2.7,2.7,42,0.00,,,-99.99,wx200d/1.3,2013-09-06 03:00:00,
2013-09-05 20:15:00,62.8,39.0,17.92,West,270,3.1,3.1,41,0.00,,,-99.99,wx200d/1.3,2013-09-06 03:15:00,
2013-09-05 20:30:00,62.8,37.0,17.92,South,176,2.2,2.7,40,0.00,,,-99.99,wx200d/1.3,2013-09-06 03:30:00,
2013-09-05 20:45:00,62.8,37.0,17.92,West,262,3.6,3.6,39,0.00,,,-99.99,wx200d/1.3,2013-09-06 03:45:00,
2013-09-05 21:00:00,62.4,37.0,17.92,WNW,284,0.0,0.0,40,0.00,,,-99.99,wx200d/1.3,2013-09-06 04:00:00,
2013-09-05 21:15:00,62.1,39.0,17.92,West,267,2.2,0.0,41,0.00,,,-99.99,wx200d/1.3,2013-09-06 04:15:00,
2013-09-05 21:30:00,61.5,37.0,17.92,West,268,0.0,0.0,42,0.00,,,-99.99,wx200d/1.3,2013-09-06 04:30:00,
2013-09-05 21:45:00,61.5,36.0,17.92,West,268,0.0,0.0,40,0.00,,,-99.99,wx200d/1.3,2013-09-06 04:45:00,
2013-09-05 22:00:00,61.0,36.0,17.92,West,269,0.0,0.0,40,0.00,,,-99.99,wx200d/1.3,2013-09-06 05:00:00,
2013-09-05 22:15:00,60.4,39.0,17.92,West,268,0.0,0.0,43,0.00,,,-99.99,wx200d/1.3,2013-09-06 05:15:00,
2013-09-05 22:30:00,60.1,39.0,17.92,West,268,0.0,0.0,44,0.00,,,-99.99,wx200d/1.3,2013-09-06 05:30:00,
2013-09-05 22:45:00,60.1,39.0,17.92,West,268,0.0,0.0,46,0.00,,,-99.99,wx200d/1.3,2013-09-06 05:45:00,
2013-09-05 23:00:00,60.1,41.0,17.92,West,269,0.0,0.0,47,0.00,,,-99.99,wx200d/1.3,2013-09-06 06:00:00,
2013-09-05 23:15:00,60.1,41.0,17.92,West,268,0.0,0.0,49,0.00,,,-99.99,wx200d/1.3,2013-09-06 06:15:00,
2013-09-05 23:30:00,59.7,39.0,17.92,West,269,0.0,0.0,49,0.00,,,-99.99,wx200d/1.3,2013-09-06 06:30:00,
2013-09-05 23:45:00,59.7,41.0,17.92,West,269,0.0,0.0,51,0.00,,,-99.99,wx200d/1.3,2013-09-06 06:45:00,